sensor_id;sensor_type;location;lat;lon;timestamp;temperature;humidity
34147;DHT22;20423;49.448;9.056;2024-01-07T00:00:22;2.50;99.90
34147;DHT22;20423;49.448;9.056;2024-01-07T00:02:47;2.50;99.90
34147;DHT22;20423;49.448;9.056;2024-01-07T00:05:13;2.50;99.90
34147;DHT22;20423;49.448;9.056;2024-01-07T00:07:46;2.40;99.90
34147;DHT22;20423;49.448;9.056;2024-01-07T00:10:13;2.50;99.90
34147;DHT22;20423;49.448;9.056;2024-01-07T00:12:39;2.50;99.90
34147;DHT22;20423;49.448;9.056;2024-01-07T00:15:05;2.50;99.90
34147;DHT22;20423;49.448;9.056;2024-01-07T00:17:30;2.50;99.90
34147;DHT22;20423;49.448;9.056;2024-01-07T00:19:56;2.50;99.90
34147;DHT22;20423;49.448;9.056;2024-01-07T00:22:31;2.40;99.90
34147;DHT22;20423;49.448;9.056;2024-01-07T00:24:57;2.50;99.90
34147;DHT22;20423;49.448;9.056;2024-01-07T00:27:23;2.50;99.90
34147;DHT22;20423;49.448;9.056;2024-01-07T00:29:48;2.50;99.90
34147;DHT22;20423;49.448;9.056;2024-01-07T00:32:14;2.40;99.90
34147;DHT22;20423;49.448;9.056;2024-01-07T00:34:47;2.40;99.90
34147;DHT22;20423;49.448;9.056;2024-01-07T00:37:13;2.50;99.90
34147;DHT22;20423;49.448;9.056;2024-01-07T00:39:38;2.40;99.90
34147;DHT22;20423;49.448;9.056;2024-01-07T00:42:04;2.50;99.90
34147;DHT22;20423;49.448;9.056;2024-01-07T00:44:30;2.40;99.90
34147;DHT22;20423;49.448;9.056;2024-01-07T00:46:58;2.50;99.90
34147;DHT22;20423;49.448;9.056;2024-01-07T00:49:26;2.50;99.90
34147;DHT22;20423;49.448;9.056;2024-01-07T00:51:53;2.50;99.90
34147;DHT22;20423;49.448;9.056;2024-01-07T00:54:19;2.50;99.90
34147;DHT22;20423;49.448;9.056;2024-01-07T00:56:45;2.50;99.90
34147;DHT22;20423;49.448;9.056;2024-01-07T00:59:10;2.50;99.90
34147;DHT22;20423;49.448;9.056;2024-01-07T01:01:43;2.50;99.90
34147;DHT22;20423;49.448;9.056;2024-01-07T01:04:09;2.50;99.90
34147;DHT22;20423;49.448;9.056;2024-01-07T01:06:35;2.50;99.90
34147;DHT22;20423;49.448;9.056;2024-01-07T01:09:00;2.50;99.90
34147;DHT22;20423;49.448;9.056;2024-01-07T01:11:26;2.50;99.90
34147;DHT22;20423;49.448;9.056;2024-01-07T01:13:51;2.50;99.90
34147;DHT22;20423;49.448;9.056;2024-01-07T01:16:24;2.50;99.90
34147;DHT22;20423;49.448;9.056;2024-01-07T01:18:50;2.60;99.90
34147;DHT22;20423;49.448;9.056;2024-01-07T01:21:16;2.50;99.90
34147;DHT22;20423;49.448;9.056;2024-01-07T01:23:41;2.50;99.90
34147;DHT22;20423;49.448;9.056;2024-01-07T01:26:07;2.50;99.90
34147;DHT22;20423;49.448;9.056;2024-01-07T01:28:35;2.50;99.90
34147;DHT22;20423;49.448;9.056;2024-01-07T01:31:01;2.50;99.90
34147;DHT22;20423;49.448;9.056;2024-01-07T01:33:26;2.50;99.90
34147;DHT22;20423;49.448;9.056;2024-01-07T01:35:52;2.40;99.90
34147;DHT22;20423;49.448;9.056;2024-01-07T01:38:17;2.40;99.90
34147;DHT22;20423;49.448;9.056;2024-01-07T01:40:43;2.40;99.90
34147;DHT22;20423;49.448;9.056;2024-01-07T01:43:08;2.40;99.90
34147;DHT22;20423;49.448;9.056;2024-01-07T01:45:42;2.40;99.90
34147;DHT22;20423;49.448;9.056;2024-01-07T01:48:07;2.50;99.90
34147;DHT22;20423;49.448;9.056;2024-01-07T01:50:33;2.50;99.90
34147;DHT22;20423;49.448;9.056;2024-01-07T01:52:59;2.50;99.90
34147;DHT22;20423;49.448;9.056;2024-01-07T01:55:24;2.50;99.90
34147;DHT22;20423;49.448;9.056;2024-01-07T01:57:56;2.40;99.90
34147;DHT22;20423;49.448;9.056;2024-01-07T02:00:25;2.30;99.90
34147;DHT22;20423;49.448;9.056;2024-01-07T02:02:51;2.20;99.90
34147;DHT22;20423;49.448;9.056;2024-01-07T02:05:16;2.30;99.90
34147;DHT22;20423;49.448;9.056;2024-01-07T02:07:42;2.20;99.90
34147;DHT22;20423;49.448;9.056;2024-01-07T02:10:08;2.20;99.90
34147;DHT22;20423;49.448;9.056;2024-01-07T02:12:41;2.20;99.90
34147;DHT22;20423;49.448;9.056;2024-01-07T02:15:07;2.30;99.90
34147;DHT22;20423;49.448;9.056;2024-01-07T02:17:33;2.30;99.90
34147;DHT22;20423;49.448;9.056;2024-01-07T02:19:58;2.30;99.90
34147;DHT22;20423;49.448;9.056;2024-01-07T02:22:24;2.30;99.90
34147;DHT22;20423;49.448;9.056;2024-01-07T02:24:58;2.40;99.90
34147;DHT22;20423;49.448;9.056;2024-01-07T02:27:23;2.40;99.90
34147;DHT22;20423;49.448;9.056;2024-01-07T02:29:49;2.40;99.90
34147;DHT22;20423;49.448;9.056;2024-01-07T02:32:14;2.40;99.90
34147;DHT22;20423;49.448;9.056;2024-01-07T02:34:40;2.40;99.90
34147;DHT22;20423;49.448;9.056;2024-01-07T02:37:06;2.40;99.90
34147;DHT22;20423;49.448;9.056;2024-01-07T02:39:39;2.40;99.90
34147;DHT22;20423;49.448;9.056;2024-01-07T02:42:05;2.40;99.90
34147;DHT22;20423;49.448;9.056;2024-01-07T02:44:30;2.40;99.90
34147;DHT22;20423;49.448;9.056;2024-01-07T02:46:56;2.30;99.90
34147;DHT22;20423;49.448;9.056;2024-01-07T02:49:21;2.30;99.90
34147;DHT22;20423;49.448;9.056;2024-01-07T02:51:54;2.40;99.90
34147;DHT22;20423;49.448;9.056;2024-01-07T02:54:20;2.30;99.90
34147;DHT22;20423;49.448;9.056;2024-01-07T02:56:45;2.40;99.90
34147;DHT22;20423;49.448;9.056;2024-01-07T02:59:11;2.40;99.90
34147;DHT22;20423;49.448;9.056;2024-01-07T03:01:37;2.40;99.90
34147;DHT22;20423;49.448;9.056;2024-01-07T03:04:09;2.40;99.90
34147;DHT22;20423;49.448;9.056;2024-01-07T03:06:35;2.40;99.90
34147;DHT22;20423;49.448;9.056;2024-01-07T03:09:01;2.40;99.90
34147;DHT22;20423;49.448;9.056;2024-01-07T03:11:26;2.40;99.90
34147;DHT22;20423;49.448;9.056;2024-01-07T03:13:52;2.40;99.90
34147;DHT22;20423;49.448;9.056;2024-01-07T03:16:31;2.40;99.90
34147;DHT22;20423;49.448;9.056;2024-01-07T03:18:57;2.40;99.90
34147;DHT22;20423;49.448;9.056;2024-01-07T03:21:23;2.40;99.90
34147;DHT22;20423;49.448;9.056;2024-01-07T03:23:49;2.40;99.90
34147;DHT22;20423;49.448;9.056;2024-01-07T03:26:15;2.40;99.90
34147;DHT22;20423;49.448;9.056;2024-01-07T03:28:41;2.30;99.90
34147;DHT22;20423;49.448;9.056;2024-01-07T03:31:13;2.40;99.90
34147;DHT22;20423;49.448;9.056;2024-01-07T03:33:40;2.40;99.90
34147;DHT22;20423;49.448;9.056;2024-01-07T03:36:12;2.40;99.90
34147;DHT22;20423;49.448;9.056;2024-01-07T03:38:40;2.40;99.90
34147;DHT22;20423;49.448;9.056;2024-01-07T03:41:06;2.40;99.90
34147;DHT22;20423;49.448;9.056;2024-01-07T03:43:32;2.40;99.90
34147;DHT22;20423;49.448;9.056;2024-01-07T03:45:58;2.40;99.90
34147;DHT22;20423;49.448;9.056;2024-01-07T03:48:24;2.40;99.90
34147;DHT22;20423;49.448;9.056;2024-01-07T03:50:49;2.40;99.90
34147;DHT22;20423;49.448;9.056;2024-01-07T03:53:22;2.40;99.90
34147;DHT22;20423;49.448;9.056;2024-01-07T03:55:48;2.30;99.90
34147;DHT22;20423;49.448;9.056;2024-01-07T03:58:14;2.40;99.90
34147;DHT22;20423;49.448;9.056;2024-01-07T04:00:40;2.40;99.90
34147;DHT22;20423;49.448;9.056;2024-01-07T04:03:05;2.40;99.90
34147;DHT22;20423;49.448;9.056;2024-01-07T04:05:31;2.50;99.90
34147;DHT22;20423;49.448;9.056;2024-01-07T04:08:05;2.50;99.90
34147;DHT22;20423;49.448;9.056;2024-01-07T04:10:31;2.50;99.90
34147;DHT22;20423;49.448;9.056;2024-01-07T04:12:56;2.50;99.90
34147;DHT22;20423;49.448;9.056;2024-01-07T04:15:23;2.50;99.90
34147;DHT22;20423;49.448;9.056;2024-01-07T04:17:48;2.50;99.90
34147;DHT22;20423;49.448;9.056;2024-01-07T04:20:14;2.50;99.90
34147;DHT22;20423;49.448;9.056;2024-01-07T04:22:42;2.50;99.90
34147;DHT22;20423;49.448;9.056;2024-01-07T04:25:07;2.50;99.90
34147;DHT22;20423;49.448;9.056;2024-01-07T04:27:34;2.50;99.90
34147;DHT22;20423;49.448;9.056;2024-01-07T04:30:00;2.50;99.90
34147;DHT22;20423;49.448;9.056;2024-01-07T04:32:26;2.50;99.90
34147;DHT22;20423;49.448;9.056;2024-01-07T04:34:54;2.50;99.90
34147;DHT22;20423;49.448;9.056;2024-01-07T04:37:23;2.40;99.90
34147;DHT22;20423;49.448;9.056;2024-01-07T04:39:49;2.50;99.90
34147;DHT22;20423;49.448;9.056;2024-01-07T04:42:14;2.50;99.90
34147;DHT22;20423;49.448;9.056;2024-01-07T04:44:40;2.50;99.90
34147;DHT22;20423;49.448;9.056;2024-01-07T04:47:22;2.50;99.90
34147;DHT22;20423;49.448;9.056;2024-01-07T04:49:47;2.50;99.90
34147;DHT22;20423;49.448;9.056;2024-01-07T04:52:13;2.50;99.90
34147;DHT22;20423;49.448;9.056;2024-01-07T04:54:38;2.50;99.90
34147;DHT22;20423;49.448;9.056;2024-01-07T04:57:04;2.50;99.90
34147;DHT22;20423;49.448;9.056;2024-01-07T04:59:30;2.60;99.90
34147;DHT22;20423;49.448;9.056;2024-01-07T05:01:58;2.50;99.90
34147;DHT22;20423;49.448;9.056;2024-01-07T05:04:23;2.60;99.90
34147;DHT22;20423;49.448;9.056;2024-01-07T05:06:49;2.60;99.90
34147;DHT22;20423;49.448;9.056;2024-01-07T05:09:15;2.60;99.90
34147;DHT22;20423;49.448;9.056;2024-01-07T05:11:41;2.60;99.90
34147;DHT22;20423;49.448;9.056;2024-01-07T05:14:06;2.60;99.90
34147;DHT22;20423;49.448;9.056;2024-01-07T05:16:34;2.50;99.90
34147;DHT22;20423;49.448;9.056;2024-01-07T05:19:00;2.60;99.90
34147;DHT22;20423;49.448;9.056;2024-01-07T05:21:26;2.60;99.90
34147;DHT22;20423;49.448;9.056;2024-01-07T05:23:51;2.60;99.90
34147;DHT22;20423;49.448;9.056;2024-01-07T05:26:17;2.70;99.90
34147;DHT22;20423;49.448;9.056;2024-01-07T05:28:43;2.60;99.90
34147;DHT22;20423;49.448;9.056;2024-01-07T05:31:17;2.60;99.90
34147;DHT22;20423;49.448;9.056;2024-01-07T05:33:44;2.60;99.90
34147;DHT22;20423;49.448;9.056;2024-01-07T05:36:10;2.60;99.90
34147;DHT22;20423;49.448;9.056;2024-01-07T05:38:35;2.60;99.90
34147;DHT22;20423;49.448;9.056;2024-01-07T05:41:01;2.50;99.90
34147;DHT22;20423;49.448;9.056;2024-01-07T05:43:29;2.50;99.90
34147;DHT22;20423;49.448;9.056;2024-01-07T05:45:55;2.50;99.90
34147;DHT22;20423;49.448;9.056;2024-01-07T05:48:23;2.50;99.90
34147;DHT22;20423;49.448;9.056;2024-01-07T05:50:49;2.60;99.90
34147;DHT22;20423;49.448;9.056;2024-01-07T05:53:15;2.50;99.90
34147;DHT22;20423;49.448;9.056;2024-01-07T05:55:41;2.50;99.90
34147;DHT22;20423;49.448;9.056;2024-01-07T05:58:07;2.50;99.90
34147;DHT22;20423;49.448;9.056;2024-01-07T06:00:35;2.60;99.90
34147;DHT22;20423;49.448;9.056;2024-01-07T06:03:00;2.60;99.90
34147;DHT22;20423;49.448;9.056;2024-01-07T06:05:26;2.50;99.90
34147;DHT22;20423;49.448;9.056;2024-01-07T06:07:51;2.50;99.90
34147;DHT22;20423;49.448;9.056;2024-01-07T06:10:17;2.50;99.90
34147;DHT22;20423;49.448;9.056;2024-01-07T06:12:43;2.50;99.90
34147;DHT22;20423;49.448;9.056;2024-01-07T06:15:12;2.50;99.90
34147;DHT22;20423;49.448;9.056;2024-01-07T06:17:38;2.50;99.90
34147;DHT22;20423;49.448;9.056;2024-01-07T06:20:04;2.40;99.90
34147;DHT22;20423;49.448;9.056;2024-01-07T06:22:31;2.50;99.90
34147;DHT22;20423;49.448;9.056;2024-01-07T06:24:56;2.40;99.90
34147;DHT22;20423;49.448;9.056;2024-01-07T06:27:29;2.40;99.90
34147;DHT22;20423;49.448;9.056;2024-01-07T06:29:55;2.40;99.90
34147;DHT22;20423;49.448;9.056;2024-01-07T06:32:20;2.30;99.90
34147;DHT22;20423;49.448;9.056;2024-01-07T06:34:47;2.30;99.90
34147;DHT22;20423;49.448;9.056;2024-01-07T06:37:12;2.30;99.90
34147;DHT22;20423;49.448;9.056;2024-01-07T06:39:38;2.30;99.90
34147;DHT22;20423;49.448;9.056;2024-01-07T06:42:12;2.30;99.90
34147;DHT22;20423;49.448;9.056;2024-01-07T06:44:38;2.30;99.90
34147;DHT22;20423;49.448;9.056;2024-01-07T06:47:03;2.20;99.90
34147;DHT22;20423;49.448;9.056;2024-01-07T06:49:29;2.20;99.90
34147;DHT22;20423;49.448;9.056;2024-01-07T06:51:54;2.30;99.90
34147;DHT22;20423;49.448;9.056;2024-01-07T06:54:20;2.20;99.90
34147;DHT22;20423;49.448;9.056;2024-01-07T06:56:48;2.20;99.90
34147;DHT22;20423;49.448;9.056;2024-01-07T06:59:13;2.20;99.90
34147;DHT22;20423;49.448;9.056;2024-01-07T07:01:40;2.10;99.90
34147;DHT22;20423;49.448;9.056;2024-01-07T07:04:05;2.10;99.90
34147;DHT22;20423;49.448;9.056;2024-01-07T07:06:31;2.10;99.90
34147;DHT22;20423;49.448;9.056;2024-01-07T07:08:56;2.10;99.90
34147;DHT22;20423;49.448;9.056;2024-01-07T07:11:24;2.10;99.90
34147;DHT22;20423;49.448;9.056;2024-01-07T07:13:53;2.10;99.90
34147;DHT22;20423;49.448;9.056;2024-01-07T07:16:38;2.00;99.90
34147;DHT22;20423;49.448;9.056;2024-01-07T07:19:09;2.00;99.90
34147;DHT22;20423;49.448;9.056;2024-01-07T07:21:40;2.00;99.90
34147;DHT22;20423;49.448;9.056;2024-01-07T07:24:06;1.90;99.90
34147;DHT22;20423;49.448;9.056;2024-01-07T07:26:31;1.90;99.90
34147;DHT22;20423;49.448;9.056;2024-01-07T07:29:03;1.90;99.90
34147;DHT22;20423;49.448;9.056;2024-01-07T07:31:28;1.80;99.90
34147;DHT22;20423;49.448;9.056;2024-01-07T07:33:54;1.80;99.90
34147;DHT22;20423;49.448;9.056;2024-01-07T07:36:20;1.80;99.90
34147;DHT22;20423;49.448;9.056;2024-01-07T07:38:45;1.70;99.90
34147;DHT22;20423;49.448;9.056;2024-01-07T07:41:20;1.80;99.90
34147;DHT22;20423;49.448;9.056;2024-01-07T07:43:46;1.70;99.90
34147;DHT22;20423;49.448;9.056;2024-01-07T07:46:11;1.60;99.90
34147;DHT22;20423;49.448;9.056;2024-01-07T07:48:37;1.60;99.90
34147;DHT22;20423;49.448;9.056;2024-01-07T07:51:03;1.70;99.90
34147;DHT22;20423;49.448;9.056;2024-01-07T07:53:28;1.60;99.90
34147;DHT22;20423;49.448;9.056;2024-01-07T07:55:56;1.60;99.90
34147;DHT22;20423;49.448;9.056;2024-01-07T07:58:22;1.60;99.90
34147;DHT22;20423;49.448;9.056;2024-01-07T08:00:47;1.60;99.90
34147;DHT22;20423;49.448;9.056;2024-01-07T08:03:13;1.60;99.90
34147;DHT22;20423;49.448;9.056;2024-01-07T08:05:39;1.60;99.90
34147;DHT22;20423;49.448;9.056;2024-01-07T08:08:07;1.60;99.90
34147;DHT22;20423;49.448;9.056;2024-01-07T08:13:55;1.60;99.90
34147;DHT22;20423;49.448;9.056;2024-01-07T08:16:23;1.60;99.90
34147;DHT22;20423;49.448;9.056;2024-01-07T08:18:58;1.70;99.90
34147;DHT22;20423;49.448;9.056;2024-01-07T08:21:24;1.70;99.90
34147;DHT22;20423;49.448;9.056;2024-01-07T08:23:50;1.70;99.90
34147;DHT22;20423;49.448;9.056;2024-01-07T08:26:19;1.60;99.90
34147;DHT22;20423;49.448;9.056;2024-01-07T08:28:45;1.60;99.90
34147;DHT22;20423;49.448;9.056;2024-01-07T08:31:10;1.60;99.90
34147;DHT22;20423;49.448;9.056;2024-01-07T08:33:36;1.60;99.90
34147;DHT22;20423;49.448;9.056;2024-01-07T08:36:02;1.60;99.90
34147;DHT22;20423;49.448;9.056;2024-01-07T08:38:28;1.60;99.90
34147;DHT22;20423;49.448;9.056;2024-01-07T08:40:53;1.60;99.90
34147;DHT22;20423;49.448;9.056;2024-01-07T08:43:19;1.60;99.90
34147;DHT22;20423;49.448;9.056;2024-01-07T08:45:44;1.60;99.90
34147;DHT22;20423;49.448;9.056;2024-01-07T08:48:10;1.50;99.90
34147;DHT22;20423;49.448;9.056;2024-01-07T08:50:37;1.50;99.90
34147;DHT22;20423;49.448;9.056;2024-01-07T08:53:04;1.60;99.90
34147;DHT22;20423;49.448;9.056;2024-01-07T08:55:30;1.60;99.90
34147;DHT22;20423;49.448;9.056;2024-01-07T08:57:55;1.50;99.90
34147;DHT22;20423;49.448;9.056;2024-01-07T09:00:21;1.50;99.90
34147;DHT22;20423;49.448;9.056;2024-01-07T09:02:51;1.60;99.90
34147;DHT22;20423;49.448;9.056;2024-01-07T09:05:17;1.60;99.90
34147;DHT22;20423;49.448;9.056;2024-01-07T09:07:42;1.60;99.90
34147;DHT22;20423;49.448;9.056;2024-01-07T09:10:08;1.50;99.90
34147;DHT22;20423;49.448;9.056;2024-01-07T09:12:36;1.40;99.90
34147;DHT22;20423;49.448;9.056;2024-01-07T09:15:03;1.40;99.90
34147;DHT22;20423;49.448;9.056;2024-01-07T09:17:29;1.40;99.90
34147;DHT22;20423;49.448;9.056;2024-01-07T09:19:55;1.40;99.90
34147;DHT22;20423;49.448;9.056;2024-01-07T09:22:20;1.40;99.90
34147;DHT22;20423;49.448;9.056;2024-01-07T09:24:47;1.30;99.90
34147;DHT22;20423;49.448;9.056;2024-01-07T09:27:18;1.20;99.90
34147;DHT22;20423;49.448;9.056;2024-01-07T09:29:44;1.20;99.90
34147;DHT22;20423;49.448;9.056;2024-01-07T09:32:09;1.30;99.90
34147;DHT22;20423;49.448;9.056;2024-01-07T09:34:35;1.40;99.90
34147;DHT22;20423;49.448;9.056;2024-01-07T09:37:04;1.40;99.90
34147;DHT22;20423;49.448;9.056;2024-01-07T09:39:29;1.40;99.90
34147;DHT22;20423;49.448;9.056;2024-01-07T09:41:55;1.30;99.90
34147;DHT22;20423;49.448;9.056;2024-01-07T09:47:49;1.30;99.90
34147;DHT22;20423;49.448;9.056;2024-01-07T09:50:14;1.40;99.90
34147;DHT22;20423;49.448;9.056;2024-01-07T09:52:44;1.60;99.90
34147;DHT22;20423;49.448;9.056;2024-01-07T09:55:12;1.70;99.90
34147;DHT22;20423;49.448;9.056;2024-01-07T09:57:40;1.70;99.90
34147;DHT22;20423;49.448;9.056;2024-01-07T10:00:06;1.60;99.90
34147;DHT22;20423;49.448;9.056;2024-01-07T10:02:37;1.70;99.90
34147;DHT22;20423;49.448;9.056;2024-01-07T10:05:21;1.70;99.90
34147;DHT22;20423;49.448;9.056;2024-01-07T10:07:47;1.60;99.90
34147;DHT22;20423;49.448;9.056;2024-01-07T10:10:13;1.60;99.90
34147;DHT22;20423;49.448;9.056;2024-01-07T10:12:39;1.60;99.90
34147;DHT22;20423;49.448;9.056;2024-01-07T10:15:05;1.70;99.90
34147;DHT22;20423;49.448;9.056;2024-01-07T10:17:31;1.80;99.90
34147;DHT22;20423;49.448;9.056;2024-01-07T10:19:56;1.90;99.90
34147;DHT22;20423;49.448;9.056;2024-01-07T10:22:22;1.80;99.90
34147;DHT22;20423;49.448;9.056;2024-01-07T10:24:48;1.90;99.90
34147;DHT22;20423;49.448;9.056;2024-01-07T10:27:16;1.90;99.90
34147;DHT22;20423;49.448;9.056;2024-01-07T10:29:42;1.80;99.90
34147;DHT22;20423;49.448;9.056;2024-01-07T10:32:07;1.70;99.90
34147;DHT22;20423;49.448;9.056;2024-01-07T10:34:34;1.70;99.90
34147;DHT22;20423;49.448;9.056;2024-01-07T10:37:00;1.60;99.90
34147;DHT22;20423;49.448;9.056;2024-01-07T10:39:26;1.60;99.90
34147;DHT22;20423;49.448;9.056;2024-01-07T10:41:53;1.60;99.90
34147;DHT22;20423;49.448;9.056;2024-01-07T10:44:22;1.60;99.90
34147;DHT22;20423;49.448;9.056;2024-01-07T10:46:48;1.60;99.90
34147;DHT22;20423;49.448;9.056;2024-01-07T10:49:24;1.60;99.90
34147;DHT22;20423;49.448;9.056;2024-01-07T10:52:07;1.50;99.90
34147;DHT22;20423;49.448;9.056;2024-01-07T10:54:34;1.50;99.90
34147;DHT22;20423;49.448;9.056;2024-01-07T10:57:04;1.40;99.90
34147;DHT22;20423;49.448;9.056;2024-01-07T10:59:32;1.30;99.90
34147;DHT22;20423;49.448;9.056;2024-01-07T11:05:05;1.40;99.90
34147;DHT22;20423;49.448;9.056;2024-01-07T11:08:08;1.40;99.90
34147;DHT22;20423;49.448;9.056;2024-01-07T11:10:28;1.30;99.90
34147;DHT22;20423;49.448;9.056;2024-01-07T11:12:56;1.20;99.90
34147;DHT22;20423;49.448;9.056;2024-01-07T11:18:08;1.20;99.90
34147;DHT22;20423;49.448;9.056;2024-01-07T11:20:34;1.20;99.90
34147;DHT22;20423;49.448;9.056;2024-01-07T11:25:44;1.20;99.90
34147;DHT22;20423;49.448;9.056;2024-01-07T11:28:10;1.10;99.90
34147;DHT22;20423;49.448;9.056;2024-01-07T11:30:40;1.10;99.90
34147;DHT22;20423;49.448;9.056;2024-01-07T11:33:07;1.10;99.90
34147;DHT22;20423;49.448;9.056;2024-01-07T11:35:54;1.10;99.90
34147;DHT22;20423;49.448;9.056;2024-01-07T11:38:23;1.10;99.90
34147;DHT22;20423;49.448;9.056;2024-01-07T11:40:51;1.00;99.90
34147;DHT22;20423;49.448;9.056;2024-01-07T11:46:46;1.20;99.90
34147;DHT22;20423;49.448;9.056;2024-01-07T11:49:12;1.20;99.90
34147;DHT22;20423;49.448;9.056;2024-01-07T11:51:38;1.30;99.90
34147;DHT22;20423;49.448;9.056;2024-01-07T11:54:04;1.10;99.90
34147;DHT22;20423;49.448;9.056;2024-01-07T11:56:31;1.10;99.90
34147;DHT22;20423;49.448;9.056;2024-01-07T11:58:57;1.10;99.90
34147;DHT22;20423;49.448;9.056;2024-01-07T12:01:23;1.20;99.90
34147;DHT22;20423;49.448;9.056;2024-01-07T12:03:57;1.10;99.90
34147;DHT22;20423;49.448;9.056;2024-01-07T12:06:24;1.10;99.90
34147;DHT22;20423;49.448;9.056;2024-01-07T12:08:52;1.20;99.90
34147;DHT22;20423;49.448;9.056;2024-01-07T12:11:18;1.20;99.90
34147;DHT22;20423;49.448;9.056;2024-01-07T12:13:43;1.30;99.90
34147;DHT22;20423;49.448;9.056;2024-01-07T12:16:10;1.20;99.90
34147;DHT22;20423;49.448;9.056;2024-01-07T12:18:36;1.10;99.90
34147;DHT22;20423;49.448;9.056;2024-01-07T12:21:02;1.00;99.90
34147;DHT22;20423;49.448;9.056;2024-01-07T12:23:27;0.90;99.90
34147;DHT22;20423;49.448;9.056;2024-01-07T12:25:53;0.80;99.90
34147;DHT22;20423;49.448;9.056;2024-01-07T12:28:21;0.80;99.90
34147;DHT22;20423;49.448;9.056;2024-01-07T12:30:47;0.80;99.90
34147;DHT22;20423;49.448;9.056;2024-01-07T12:33:20;0.90;99.90
34147;DHT22;20423;49.448;9.056;2024-01-07T12:35:46;1.00;99.90
34147;DHT22;20423;49.448;9.056;2024-01-07T12:38:12;1.00;99.90
34147;DHT22;20423;49.448;9.056;2024-01-07T12:40:38;1.00;99.90
34147;DHT22;20423;49.448;9.056;2024-01-07T12:43:05;1.00;99.90
34147;DHT22;20423;49.448;9.056;2024-01-07T12:45:32;0.90;99.90
34147;DHT22;20423;49.448;9.056;2024-01-07T12:47:58;0.60;99.90
34147;DHT22;20423;49.448;9.056;2024-01-07T12:50:27;0.70;99.90
34147;DHT22;20423;49.448;9.056;2024-01-07T12:52:56;0.70;99.90
34147;DHT22;20423;49.448;9.056;2024-01-07T12:55:22;0.80;99.90
34147;DHT22;20423;49.448;9.056;2024-01-07T12:57:48;0.80;99.90
34147;DHT22;20423;49.448;9.056;2024-01-07T13:00:18;0.90;99.90
34147;DHT22;20423;49.448;9.056;2024-01-07T13:03:03;0.90;99.90
34147;DHT22;20423;49.448;9.056;2024-01-07T13:05:30;0.90;99.90
34147;DHT22;20423;49.448;9.056;2024-01-07T13:07:56;0.80;99.90
34147;DHT22;20423;49.448;9.056;2024-01-07T13:10:21;0.70;99.90
34147;DHT22;20423;49.448;9.056;2024-01-07T13:12:47;0.70;99.90
34147;DHT22;20423;49.448;9.056;2024-01-07T13:15:13;0.70;99.90
34147;DHT22;20423;49.448;9.056;2024-01-07T13:17:51;0.50;99.90
34147;DHT22;20423;49.448;9.056;2024-01-07T13:20:22;0.50;99.90
34147;DHT22;20423;49.448;9.056;2024-01-07T13:22:48;0.50;99.90
34147;DHT22;20423;49.448;9.056;2024-01-07T13:25:14;0.60;99.90
34147;DHT22;20423;49.448;9.056;2024-01-07T13:27:39;0.70;99.90
34147;DHT22;20423;49.448;9.056;2024-01-07T13:30:06;0.70;99.90
34147;DHT22;20423;49.448;9.056;2024-01-07T13:32:32;0.50;99.90
34147;DHT22;20423;49.448;9.056;2024-01-07T13:35:07;0.40;99.90
34147;DHT22;20423;49.448;9.056;2024-01-07T13:37:36;0.30;99.90
34147;DHT22;20423;49.448;9.056;2024-01-07T13:40:02;0.30;99.90
34147;DHT22;20423;49.448;9.056;2024-01-07T13:42:29;0.30;99.90
34147;DHT22;20423;49.448;9.056;2024-01-07T13:44:55;0.40;99.90
34147;DHT22;20423;49.448;9.056;2024-01-07T13:47:20;0.50;99.90
34147;DHT22;20423;49.448;9.056;2024-01-07T13:49:49;0.40;99.90
34147;DHT22;20423;49.448;9.056;2024-01-07T13:52:16;0.40;99.90
34147;DHT22;20423;49.448;9.056;2024-01-07T13:54:42;0.40;99.90
34147;DHT22;20423;49.448;9.056;2024-01-07T13:57:07;0.40;99.90
34147;DHT22;20423;49.448;9.056;2024-01-07T13:59:33;0.20;99.90
34147;DHT22;20423;49.448;9.056;2024-01-07T14:01:59;0.20;99.90
34147;DHT22;20423;49.448;9.056;2024-01-07T14:04:25;0.20;99.90
34147;DHT22;20423;49.448;9.056;2024-01-07T14:06:57;0.10;99.90
34147;DHT22;20423;49.448;9.056;2024-01-07T14:09:23;0.10;99.90
34147;DHT22;20423;49.448;9.056;2024-01-07T14:11:48;0.10;99.90
34147;DHT22;20423;49.448;9.056;2024-01-07T14:14:14;0.00;99.90
34147;DHT22;20423;49.448;9.056;2024-01-07T14:16:41;0.00;99.90
34147;DHT22;20423;49.448;9.056;2024-01-07T14:19:08;0.00;99.90
34147;DHT22;20423;49.448;9.056;2024-01-07T14:21:34;-0.10;99.90
34147;DHT22;20423;49.448;9.056;2024-01-07T14:24:00;-0.10;99.90
34147;DHT22;20423;49.448;9.056;2024-01-07T14:26:26;-0.10;99.90
34147;DHT22;20423;49.448;9.056;2024-01-07T14:28:51;-0.20;99.90
34147;DHT22;20423;49.448;9.056;2024-01-07T14:31:18;-0.10;99.90
34147;DHT22;20423;49.448;9.056;2024-01-07T14:33:48;-0.20;99.90
34147;DHT22;20423;49.448;9.056;2024-01-07T14:36:14;-0.30;99.90
34147;DHT22;20423;49.448;9.056;2024-01-07T14:38:45;-0.40;99.90
34147;DHT22;20423;49.448;9.056;2024-01-07T14:41:15;-0.40;99.90
34147;DHT22;20423;49.448;9.056;2024-01-07T14:43:41;-0.50;99.90
34147;DHT22;20423;49.448;9.056;2024-01-07T14:46:07;-0.50;99.90
34147;DHT22;20423;49.448;9.056;2024-01-07T14:48:36;-0.50;99.90
34147;DHT22;20423;49.448;9.056;2024-01-07T14:51:02;-0.50;99.90
34147;DHT22;20423;49.448;9.056;2024-01-07T14:53:27;-0.50;99.90
34147;DHT22;20423;49.448;9.056;2024-01-07T14:55:57;-0.50;99.90
34147;DHT22;20423;49.448;9.056;2024-01-07T14:58:24;-0.60;99.90
34147;DHT22;20423;49.448;9.056;2024-01-07T15:00:50;-0.50;99.90
34147;DHT22;20423;49.448;9.056;2024-01-07T15:03:16;-0.60;99.90
34147;DHT22;20423;49.448;9.056;2024-01-07T15:05:45;-0.60;99.90
34147;DHT22;20423;49.448;9.056;2024-01-07T15:11:04;-0.70;99.90
34147;DHT22;20423;49.448;9.056;2024-01-07T15:13:48;-0.70;99.90
34147;DHT22;20423;49.448;9.056;2024-01-07T15:16:13;-0.70;99.90
34147;DHT22;20423;49.448;9.056;2024-01-07T15:18:39;-0.70;99.90
34147;DHT22;20423;49.448;9.056;2024-01-07T15:21:04;-0.80;99.90
34147;DHT22;20423;49.448;9.056;2024-01-07T15:23:30;-0.80;99.90
34147;DHT22;20423;49.448;9.056;2024-01-07T15:25:56;-0.80;99.90
34147;DHT22;20423;49.448;9.056;2024-01-07T15:28:21;-0.80;99.90
34147;DHT22;20423;49.448;9.056;2024-01-07T15:30:47;-0.90;99.90
34147;DHT22;20423;49.448;9.056;2024-01-07T15:33:13;-1.00;99.90
34147;DHT22;20423;49.448;9.056;2024-01-07T15:35:38;-1.10;99.90
34147;DHT22;20423;49.448;9.056;2024-01-07T15:38:04;-1.10;99.90
34147;DHT22;20423;49.448;9.056;2024-01-07T15:40:30;-1.20;99.90
34147;DHT22;20423;49.448;9.056;2024-01-07T15:42:56;-1.30;99.90
34147;DHT22;20423;49.448;9.056;2024-01-07T15:45:21;-1.30;99.90
34147;DHT22;20423;49.448;9.056;2024-01-07T15:47:47;-1.30;99.90
34147;DHT22;20423;49.448;9.056;2024-01-07T15:50:13;-1.30;99.90
34147;DHT22;20423;49.448;9.056;2024-01-07T15:52:39;-1.30;99.90
34147;DHT22;20423;49.448;9.056;2024-01-07T15:55:09;-1.30;99.90
34147;DHT22;20423;49.448;9.056;2024-01-07T15:57:47;-1.30;99.90
34147;DHT22;20423;49.448;9.056;2024-01-07T16:00:13;-1.30;99.90
34147;DHT22;20423;49.448;9.056;2024-01-07T16:02:39;-1.30;99.90
34147;DHT22;20423;49.448;9.056;2024-01-07T16:05:05;-1.40;99.90